createdAt,value
2019-03-23T00:01:42.734Z,15.50
2019-03-23T00:04:15.811Z,13.63
2019-03-23T00:06:47.653Z,14.03
2019-03-23T00:09:21.226Z,12.10
2019-03-23T00:11:55.952Z,14.33
2019-03-23T00:14:29.611Z,13.87
2019-03-23T00:17:02.591Z,13.10
2019-03-23T00:19:35.657Z,13.47
2019-03-23T00:22:08.600Z,12.77
2019-03-23T00:24:41.580Z,13.33
2019-03-23T00:27:14.816Z,13.00
2019-03-23T00:29:48.265Z,12.97
2019-03-23T00:32:20.636Z,12.57
2019-03-23T00:34:53.590Z,13.50
2019-03-23T00:37:27.594Z,14.18
2019-03-23T00:40:01.677Z,12.82
2019-03-23T00:42:34.735Z,11.70
2019-03-23T00:45:09.547Z,14.30
2019-03-23T00:47:41.831Z,14.00
2019-03-23T00:50:15.004Z,12.07
2019-03-23T00:52:50.458Z,12.47
2019-03-23T00:55:24.889Z,12.30
2019-03-23T00:57:56.888Z,14.30
2019-03-23T01:00:29.857Z,12.63
2019-03-23T01:03:03.852Z,12.50
2019-03-23T01:05:35.877Z,12.97
2019-03-23T01:08:08.758Z,13.50
2019-03-23T01:10:45.956Z,12.30
2019-03-23T01:13:17.798Z,12.80
2019-03-23T01:15:50.907Z,13.10
2019-03-23T01:18:23.262Z,13.10
2019-03-23T01:20:56.955Z,12.50
2019-03-23T01:23:30.002Z,12.37
2019-03-23T01:26:04.118Z,13.07
2019-03-23T01:28:35.922Z,15.57
2019-03-23T01:31:08.997Z,14.13
2019-03-23T01:33:42.045Z,13.50
2019-03-23T01:36:14.909Z,12.90
2019-03-23T01:38:49.127Z,12.20
2019-03-23T01:41:23.130Z,13.62
2019-03-23T01:43:58.657Z,13.73
2019-03-23T01:46:32.913Z,13.43
2019-03-23T01:49:05.368Z,13.97
2019-03-23T01:51:39.042Z,13.73
2019-03-23T01:54:12.089Z,13.50
2019-03-23T01:56:45.886Z,15.30
2019-03-23T01:59:18.230Z,14.00
2019-03-23T02:01:51.325Z,14.10
2019-03-23T02:04:24.220Z,14.23
2019-03-23T02:06:56.097Z,13.77
2019-03-23T02:09:28.168Z,12.98
2019-03-23T02:12:01.567Z,16.33
2019-03-23T02:14:37.666Z,12.82
2019-03-23T02:17:12.241Z,14.33
2019-03-23T02:19:44.191Z,13.27
2019-03-23T02:22:18.259Z,14.77
2019-03-23T02:24:51.238Z,14.63
2019-03-23T02:27:25.597Z,15.50
2019-03-23T02:29:59.686Z,17.20
2019-03-23T02:32:32.313Z,17.30
2019-03-23T02:35:06.010Z,15.80
2019-03-23T02:37:40.707Z,16.90
2019-03-23T02:40:15.325Z,16.73
2019-03-23T02:42:48.394Z,19.80
2019-03-23T02:45:20.767Z,16.50
2019-03-23T02:47:54.501Z,16.67
2019-03-23T02:50:27.367Z,17.97
2019-03-23T02:52:59.492Z,17.27
2019-03-23T02:55:32.306Z,16.70
2019-03-23T02:58:04.312Z,17.30
2019-03-23T03:00:37.454Z,17.83
2019-03-23T03:03:11.370Z,16.77
2019-03-23T03:05:45.350Z,16.20
2019-03-23T03:08:17.314Z,15.30
2019-03-23T03:10:50.412Z,15.93
2019-03-23T03:13:25.337Z,16.25
2019-03-23T03:15:57.705Z,15.93
2019-03-23T03:18:29.955Z,17.50
2019-03-23T03:21:03.558Z,16.40
2019-03-23T03:23:37.696Z,15.43
2019-03-23T03:26:11.568Z,17.60
2019-03-23T03:28:43.498Z,16.30
2019-03-23T03:31:15.486Z,17.07
2019-03-23T03:33:47.968Z,17.03
2019-03-23T03:36:22.309Z,17.20
2019-03-23T03:38:54.771Z,17.07
2019-03-23T03:41:26.682Z,17.07
2019-03-23T03:43:58.530Z,17.40
2019-03-23T03:46:30.663Z,17.37
2019-03-23T03:49:12.240Z,17.60
2019-03-23T03:51:38.623Z,15.47
2019-03-23T03:54:11.625Z,17.13
2019-03-23T03:56:45.674Z,19.00
2019-03-23T03:59:17.851Z,18.47
2019-03-23T04:01:50.638Z,18.10
2019-03-23T04:04:22.470Z,17.27
2019-03-23T04:06:56.698Z,17.20
2019-03-23T04:09:29.701Z,16.42
2019-03-23T04:12:03.880Z,18.00
2019-03-23T04:14:35.754Z,16.97
2019-03-23T04:17:08.815Z,15.50
2019-03-23T04:19:41.907Z,16.90
2019-03-23T04:22:14.745Z,15.47
2019-03-23T04:24:47.634Z,17.17
2019-03-23T04:27:23.097Z,17.73
2019-03-23T04:29:56.830Z,16.67
2019-03-23T04:32:29.879Z,17.45
2019-03-23T04:35:07.097Z,16.83
2019-03-23T04:37:41.730Z,16.03
2019-03-23T04:40:14.911Z,15.70
2019-03-23T04:42:48.894Z,17.67
2019-03-23T04:45:22.364Z,16.20
2019-03-23T04:47:55.908Z,17.97
2019-03-23T04:50:30.125Z,17.27
2019-03-23T04:53:03.001Z,16.63
2019-03-23T04:55:36.383Z,16.40
2019-03-23T04:58:09.022Z,16.70
2019-03-23T05:00:40.925Z,13.97
2019-03-23T05:03:15.392Z,15.97
2019-03-23T05:05:48.191Z,16.40
2019-03-23T05:08:21.063Z,15.40
2019-03-23T05:10:54.117Z,15.05
2019-03-23T05:13:27.080Z,16.10
2019-03-23T05:15:58.955Z,15.90
2019-03-23T05:18:33.028Z,19.65
2019-03-23T05:21:05.855Z,18.27
2019-03-23T05:23:40.657Z,17.87
2019-03-23T05:26:15.511Z,18.93
2019-03-23T05:28:49.767Z,18.50
2019-03-23T05:31:24.232Z,18.20
2019-03-23T05:33:57.564Z,19.35
2019-03-23T05:36:30.301Z,18.60
2019-03-23T05:39:06.305Z,18.67
2019-03-23T05:41:39.152Z,19.23
2019-03-23T05:44:12.643Z,16.47
2019-03-23T05:46:47.193Z,17.30
2019-03-23T05:49:21.245Z,15.90
2019-03-23T05:51:54.599Z,14.60
2019-03-23T05:54:27.259Z,15.70
2019-03-23T05:57:01.323Z,15.63
2019-03-23T05:59:37.730Z,15.20
2019-03-23T06:02:12.247Z,13.90
2019-03-23T06:04:46.400Z,14.00
2019-03-23T06:07:21.863Z,13.00
2019-03-23T06:09:55.282Z,12.10
2019-03-23T06:12:27.201Z,13.70
2019-03-23T06:14:59.366Z,12.20
2019-03-23T06:17:35.009Z,11.50
2019-03-23T06:20:09.760Z,10.37
2019-03-23T06:22:43.383Z,12.10
2019-03-23T06:25:15.519Z,11.77
2019-03-23T06:27:50.017Z,13.83
2019-03-23T06:30:23.531Z,14.60
2019-03-23T06:32:59.339Z,14.60
2019-03-23T06:35:31.363Z,15.20
2019-03-23T06:38:03.723Z,15.73
2019-03-23T06:40:36.280Z,17.80
2019-03-23T06:43:09.600Z,17.63
2019-03-23T06:45:42.670Z,18.70
2019-03-23T06:48:15.563Z,16.47
2019-03-23T06:50:48.348Z,17.90
2019-03-23T06:53:21.517Z,15.60
2019-03-23T06:55:53.430Z,16.17
2019-03-23T06:58:27.897Z,17.03
2019-03-23T07:01:00.722Z,16.33
2019-03-23T07:03:33.629Z,18.43
2019-03-23T07:06:05.562Z,18.93
2019-03-23T07:08:39.559Z,20.57
2019-03-23T07:11:13.369Z,19.73
2019-03-23T07:13:45.567Z,21.50
2019-03-23T07:16:18.678Z,22.87
2019-03-23T07:18:51.525Z,23.60
2019-03-23T07:21:24.684Z,23.38
2019-03-23T07:23:56.882Z,25.20
2019-03-23T07:26:30.734Z,29.57
2019-03-23T07:29:04.756Z,32.30
2019-03-23T07:31:36.636Z,41.20
2019-03-23T07:34:09.745Z,41.70
2019-03-23T07:36:42.331Z,42.00
2019-03-23T07:39:26.451Z,43.15
2019-03-23T07:41:54.273Z,43.83
2019-03-23T07:44:27.680Z,44.13
2019-03-23T07:47:00.664Z,47.57
2019-03-23T07:49:32.752Z,52.27
2019-03-23T07:52:04.691Z,55.10
2019-03-23T07:54:36.818Z,61.68
2019-03-23T07:57:09.979Z,56.13
2019-03-23T07:59:42.751Z,60.10
2019-03-23T08:02:15.609Z,58.53
2019-03-23T08:04:49.530Z,58.67
2019-03-23T08:07:23.761Z,56.10
2019-03-23T08:09:55.748Z,54.97
2019-03-23T08:12:28.775Z,57.33
2019-03-23T08:15:02.899Z,55.80
2019-03-23T08:17:37.042Z,54.97
2019-03-23T08:20:12.131Z,57.27
2019-03-23T08:22:45.803Z,56.47
2019-03-23T08:25:19.296Z,50.88
2019-03-23T08:27:55.732Z,53.43
2019-03-23T08:30:28.143Z,52.40
2019-03-23T08:33:02.821Z,55.40
2019-03-23T08:35:36.067Z,56.30
2019-03-23T08:38:08.901Z,57.47
2019-03-23T08:40:43.862Z,56.33
2019-03-23T08:43:18.031Z,58.17
2019-03-23T08:45:51.190Z,61.27
2019-03-23T08:48:26.735Z,62.00
2019-03-23T08:51:01.417Z,61.13
2019-03-23T08:53:33.416Z,60.83
2019-03-23T08:56:05.984Z,61.47
2019-03-23T08:58:38.427Z,61.90
2019-03-23T09:01:12.182Z,62.47
2019-03-23T09:03:52.481Z,61.63
2019-03-23T09:06:20.932Z,64.50
2019-03-23T09:08:54.132Z,66.40
2019-03-23T09:11:27.179Z,60.15
2019-03-23T09:13:59.081Z,55.33
2019-03-23T09:16:33.212Z,56.47
2019-03-23T09:19:06.683Z,55.80
2019-03-23T09:21:39.134Z,58.25
2019-03-23T09:24:12.304Z,53.87
2019-03-23T09:26:45.126Z,55.37
2019-03-23T09:29:17.309Z,54.30
2019-03-23T09:31:51.640Z,46.80
2019-03-23T09:34:25.287Z,52.60
2019-03-23T09:36:59.623Z,50.73
2019-03-23T09:39:32.135Z,51.00
2019-03-23T09:42:04.546Z,53.60
2019-03-23T09:44:36.675Z,54.30
2019-03-23T09:47:09.363Z,54.07
2019-03-23T09:49:42.096Z,51.77
2019-03-23T09:52:15.470Z,54.90
2019-03-23T09:54:48.214Z,49.30
2019-03-23T09:57:21.354Z,46.08
2019-03-23T09:59:54.837Z,48.80
2019-03-23T10:02:28.211Z,42.10
2019-03-23T10:05:01.362Z,34.80
2019-03-23T10:07:33.293Z,31.87
2019-03-23T10:10:06.734Z,32.63
2019-03-23T10:12:40.477Z,29.87
2019-03-23T10:15:13.300Z,28.10
2019-03-23T10:18:03.622Z,27.43
2019-03-23T10:20:53.698Z,26.40
2019-03-23T10:23:44.825Z,26.50
2019-03-23T10:26:35.034Z,26.13
2019-03-23T10:29:24.856Z,23.35
2019-03-23T10:32:15.026Z,24.70
2019-03-23T10:35:06.305Z,22.80
2019-03-23T10:37:56.215Z,21.77
2019-03-23T10:40:46.346Z,22.13
2019-03-23T10:43:38.982Z,22.10
2019-03-23T10:46:29.147Z,22.60
2019-03-23T10:49:19.074Z,22.48
2019-03-23T10:52:09.350Z,24.87
2019-03-23T10:54:43.060Z,23.20
2019-03-23T10:57:17.533Z,25.27
2019-03-23T10:59:50.405Z,26.63
2019-03-23T11:02:23.525Z,23.27
2019-03-23T11:04:58.247Z,25.52
2019-03-23T11:07:32.521Z,26.27
2019-03-23T11:10:04.569Z,29.20
2019-03-23T11:12:37.360Z,29.00
2019-03-23T11:15:10.755Z,29.97
2019-03-23T11:17:44.455Z,28.53
2019-03-23T11:20:17.349Z,25.57
2019-03-23T11:22:49.701Z,28.07
2019-03-23T11:25:22.956Z,27.87
2019-03-23T11:27:57.481Z,27.43
2019-03-23T11:30:31.470Z,26.20
2019-03-23T11:33:03.369Z,28.93
2019-03-23T11:35:36.570Z,25.17
2019-03-23T11:38:10.161Z,25.40
2019-03-23T11:40:52.760Z,24.80
2019-03-23T11:43:19.541Z,25.15
2019-03-23T11:45:53.543Z,22.33
2019-03-23T11:48:25.523Z,26.23
2019-03-23T11:50:58.790Z,25.30
2019-03-23T11:53:31.589Z,25.60
2019-03-23T11:56:05.506Z,23.57
2019-03-23T11:58:38.673Z,24.23
2019-03-23T12:01:12.691Z,24.17
2019-03-23T12:03:51.765Z,23.60
2019-03-23T12:06:23.725Z,25.33
2019-03-23T12:08:55.649Z,21.77
2019-03-23T12:11:27.787Z,24.40
2019-03-23T12:14:03.726Z,26.00
2019-03-23T12:16:35.643Z,28.80
2019-03-23T12:19:09.906Z,26.53
2019-03-23T12:21:43.783Z,26.52
2019-03-23T12:24:15.788Z,25.60
2019-03-23T12:26:49.833Z,27.03
2019-03-23T12:29:24.373Z,27.20
2019-03-23T12:31:59.033Z,27.63
2019-03-23T12:34:32.294Z,27.67
2019-03-23T12:37:04.719Z,28.50
2019-03-23T12:39:37.650Z,27.20
2019-03-23T12:42:09.803Z,25.90
2019-03-23T12:44:43.819Z,29.40
2019-03-23T12:47:16.787Z,28.83
2019-03-23T12:49:50.148Z,26.73
2019-03-23T12:52:22.851Z,27.10
2019-03-23T12:54:54.807Z,27.23
2019-03-23T12:57:28.821Z,26.53
2019-03-23T13:00:03.230Z,26.30
2019-03-23T13:02:37.893Z,27.80
2019-03-23T13:05:10.764Z,26.80
2019-03-23T13:07:43.718Z,26.43
2019-03-23T13:10:17.196Z,27.30
2019-03-23T13:12:49.931Z,26.90
2019-03-23T13:15:23.734Z,27.57
2019-03-23T13:17:57.005Z,26.10
2019-03-23T13:23:09.664Z,26.37
2019-03-23T13:25:41.995Z,28.00
2019-03-23T13:28:13.918Z,25.87
2019-03-23T13:30:47.292Z,25.57
2019-03-23T13:33:20.035Z,25.97
2019-03-23T13:35:51.940Z,27.37
2019-03-23T13:38:26.154Z,23.50
2019-03-23T13:41:00.102Z,26.67
2019-03-23T13:43:31.901Z,23.80
2019-03-23T13:46:05.949Z,25.00
2019-03-23T13:48:37.990Z,24.50
2019-03-23T13:51:12.051Z,26.53
2019-03-23T13:53:43.924Z,25.07
2019-03-23T13:56:17.085Z,24.23
2019-03-23T13:58:49.073Z,23.30
2019-03-23T14:01:23.610Z,23.70
2019-03-23T14:03:57.221Z,25.40
2019-03-23T14:06:32.075Z,23.97
2019-03-23T14:09:05.346Z,24.00
2019-03-23T14:11:40.228Z,24.23
2019-03-23T14:14:13.079Z,24.20
2019-03-23T14:16:45.144Z,23.70
2019-03-23T14:19:17.044Z,24.47
2019-03-23T14:21:49.070Z,26.27
2019-03-23T14:24:23.071Z,26.63
2019-03-23T14:26:58.027Z,24.10
2019-03-23T14:29:33.498Z,25.30
2019-03-23T14:32:08.141Z,23.67
2019-03-23T14:34:41.173Z,23.40
2019-03-23T14:37:13.751Z,23.10
2019-03-23T14:39:47.162Z,24.37
2019-03-23T14:42:20.149Z,24.20
2019-03-23T14:44:53.383Z,24.47
2019-03-23T14:47:26.356Z,24.60
2019-03-23T14:49:59.232Z,24.10
2019-03-23T14:52:32.369Z,23.47
2019-03-23T14:55:07.014Z,23.50
2019-03-23T14:57:40.519Z,23.77
2019-03-23T15:00:13.655Z,23.40
2019-03-23T15:02:45.790Z,21.87
2019-03-23T15:05:22.050Z,23.47
2019-03-23T15:07:56.993Z,25.23
2019-03-23T15:10:28.916Z,23.30
2019-03-23T15:13:02.561Z,24.10
2019-03-23T15:15:36.482Z,25.43
2019-03-23T15:18:09.590Z,24.80
2019-03-23T15:20:42.966Z,25.73
2019-03-23T15:23:17.717Z,24.77
2019-03-23T15:25:51.580Z,22.40
2019-03-23T15:28:25.312Z,25.23
2019-03-23T15:30:59.574Z,25.10
2019-03-23T15:33:32.556Z,26.85
2019-03-23T15:36:05.304Z,26.00
2019-03-23T15:38:38.784Z,26.43
2019-03-23T15:41:13.862Z,27.10
2019-03-23T15:43:45.794Z,24.80
2019-03-23T15:46:17.870Z,27.43
2019-03-23T15:48:50.800Z,26.30
2019-03-23T15:51:24.456Z,25.87
2019-03-23T15:53:56.655Z,29.60
2019-03-23T15:56:28.878Z,28.53
2019-03-23T15:59:00.863Z,27.00
2019-03-23T16:01:35.543Z,29.20
2019-03-23T16:04:09.195Z,27.87
2019-03-23T16:06:43.566Z,27.47
2019-03-23T16:09:17.590Z,29.57
2019-03-23T16:11:52.821Z,28.10
2019-03-23T16:14:26.620Z,28.80
2019-03-23T16:16:58.669Z,26.60
2019-03-23T16:19:32.764Z,28.80
2019-03-23T16:22:06.693Z,29.47
2019-03-23T16:24:39.674Z,29.57
2019-03-23T16:27:13.646Z,29.45
2019-03-23T16:29:47.746Z,30.87
2019-03-23T16:32:21.147Z,32.13
2019-03-23T16:34:54.802Z,31.50
2019-03-23T16:37:26.893Z,28.63
2019-03-23T16:39:59.848Z,30.20
2019-03-23T16:42:32.967Z,30.97
2019-03-23T16:45:08.057Z,30.50
2019-03-23T16:47:41.842Z,30.10
2019-03-23T16:50:13.798Z,31.83
2019-03-23T16:52:47.824Z,31.07
2019-03-23T16:55:21.204Z,30.17
2019-03-23T16:57:57.356Z,31.00
2019-03-23T17:00:36.548Z,30.67
2019-03-23T17:03:11.012Z,31.40
2019-03-23T17:05:43.940Z,33.10
2019-03-23T17:08:16.923Z,34.30
2019-03-23T17:10:49.199Z,33.63
2019-03-23T17:13:22.954Z,34.87
2019-03-23T17:15:55.866Z,34.50
2019-03-23T17:18:28.902Z,33.57
2019-03-23T17:21:03.059Z,33.83
2019-03-23T17:23:34.895Z,33.30
2019-03-23T17:26:09.574Z,33.67
2019-03-23T17:28:44.090Z,32.23
2019-03-23T17:31:17.172Z,32.90
2019-03-23T17:33:51.802Z,65.63
2019-03-23T17:36:28.608Z,80.07
2019-03-23T17:39:02.082Z,46.70
2019-03-23T17:41:35.245Z,42.00
2019-03-23T17:44:10.298Z,35.77
2019-03-23T17:46:43.301Z,32.43
2019-03-23T17:49:17.219Z,33.60
2019-03-23T17:51:52.633Z,34.53
2019-03-23T17:54:26.189Z,33.50
2019-03-23T17:56:59.812Z,35.30
2019-03-23T17:59:32.579Z,37.30
2019-03-23T18:02:05.153Z,38.40
2019-03-23T18:04:39.820Z,37.87
2019-03-23T18:07:12.305Z,38.50
2019-03-23T18:09:45.202Z,37.87
2019-03-23T18:12:17.195Z,35.47
2019-03-23T18:14:49.376Z,35.07
2019-03-23T18:17:24.424Z,38.17
2019-03-23T18:19:58.891Z,42.15
2019-03-23T18:22:32.347Z,43.57
2019-03-23T18:25:05.874Z,40.37
2019-03-23T18:27:40.261Z,40.00
2019-03-23T18:30:41.230Z,50.07
2019-03-23T18:33:14.160Z,56.67
2019-03-23T18:35:47.995Z,51.27
2019-03-23T18:38:20.601Z,132.83
2019-03-23T18:40:53.330Z,54.77
2019-03-23T18:43:27.684Z,48.50
2019-03-23T18:46:02.264Z,49.60
2019-03-23T18:48:36.960Z,48.47
2019-03-23T18:51:12.226Z,50.47
2019-03-23T18:53:44.520Z,46.90
2019-03-23T18:56:17.409Z,48.57
2019-03-23T18:58:50.328Z,45.97
2019-03-23T19:01:23.497Z,43.90
2019-03-23T19:03:59.120Z,46.58
2019-03-23T19:06:32.485Z,46.90
2019-03-23T19:09:05.491Z,42.13
2019-03-23T19:11:37.413Z,42.30
2019-03-23T19:14:12.254Z,44.53
2019-03-23T19:16:44.678Z,43.20
2019-03-23T19:19:17.640Z,46.33
2019-03-23T19:21:50.587Z,47.53
2019-03-23T19:24:23.523Z,45.07
2019-03-23T19:26:58.127Z,46.03
2019-03-23T19:29:30.534Z,50.87
2019-03-23T19:32:02.699Z,44.47
2019-03-23T19:34:37.237Z,44.97
2019-03-23T19:37:11.613Z,44.77
2019-03-23T19:39:43.910Z,43.50
2019-03-23T19:42:19.116Z,43.80
2019-03-23T19:44:53.693Z,42.57
2019-03-23T19:47:25.563Z,41.02
2019-03-23T19:49:58.972Z,40.80
2019-03-23T19:52:33.515Z,42.83
2019-03-23T19:55:05.755Z,42.30
2019-03-23T19:57:38.938Z,43.10
2019-03-23T20:00:13.615Z,38.07
2019-03-23T20:02:47.551Z,36.93
2019-03-23T20:05:20.780Z,37.80
2019-03-23T20:07:55.391Z,43.80
2019-03-23T20:10:29.639Z,37.63
2019-03-23T20:13:02.697Z,39.20
2019-03-23T20:15:40.385Z,36.80
2019-03-23T20:18:13.654Z,40.10
2019-03-23T20:20:46.273Z,41.80
2019-03-23T20:23:18.168Z,38.00
2019-03-23T20:25:50.222Z,37.90
2019-03-23T20:28:25.741Z,35.63
2019-03-23T20:30:57.727Z,39.67
2019-03-23T20:33:29.952Z,38.33
2019-03-23T20:36:04.881Z,38.40
2019-03-23T20:38:40.551Z,39.30
2019-03-23T20:41:15.863Z,38.30
2019-03-23T20:43:48.862Z,37.63
2019-03-23T20:46:20.778Z,39.10
2019-03-23T20:48:53.941Z,37.97
2019-03-23T20:51:25.753Z,38.50
2019-03-23T20:54:00.317Z,38.43
2019-03-23T20:56:34.846Z,39.97
2019-03-23T20:59:06.922Z,38.07
2019-03-23T21:01:41.050Z,39.20
2019-03-23T21:04:14.146Z,39.67
2019-03-23T21:06:50.512Z,37.67
2019-03-23T21:09:24.044Z,37.80
2019-03-23T21:11:56.131Z,41.77
2019-03-23T21:14:30.031Z,35.50
2019-03-23T21:17:03.040Z,38.37
2019-03-23T21:19:37.180Z,39.67
2019-03-23T21:22:11.078Z,38.83
2019-03-23T21:24:44.077Z,38.97
2019-03-23T21:27:17.984Z,38.23
2019-03-23T21:29:51.377Z,41.23
2019-03-23T21:32:24.063Z,38.50
2019-03-23T21:34:58.034Z,37.77
2019-03-23T21:37:29.972Z,39.37
2019-03-23T21:40:03.167Z,38.73
2019-03-23T21:42:36.022Z,37.87
2019-03-23T21:45:10.157Z,38.03
2019-03-23T21:47:44.002Z,39.80
2019-03-23T21:50:18.239Z,37.40
2019-03-23T21:52:51.200Z,36.30
2019-03-23T21:55:23.583Z,37.73
2019-03-23T21:57:57.352Z,36.98
2019-03-23T22:00:35.936Z,37.30
2019-03-23T22:03:08.249Z,37.70
2019-03-23T22:05:40.743Z,36.57
2019-03-23T22:08:17.540Z,38.37
2019-03-23T22:10:50.998Z,36.77
2019-03-23T22:13:24.625Z,38.53
2019-03-23T22:16:05.123Z,40.30
2019-03-23T22:18:37.288Z,37.90
2019-03-23T22:21:11.363Z,38.87
2019-03-23T22:23:45.042Z,37.67
2019-03-23T22:26:18.395Z,38.73
2019-03-23T22:28:52.282Z,37.70
2019-03-23T22:31:26.301Z,39.13
2019-03-23T22:33:59.376Z,38.83
2019-03-23T22:36:33.327Z,37.20
2019-03-23T22:39:07.918Z,36.63
2019-03-23T22:41:40.309Z,37.77
2019-03-23T22:44:14.576Z,40.13
2019-03-23T22:46:47.392Z,38.67
2019-03-23T22:49:20.526Z,40.67
2019-03-23T22:51:54.286Z,39.30
2019-03-23T22:54:29.925Z,37.17
2019-03-23T22:57:04.487Z,37.00
2019-03-23T22:59:37.320Z,39.23
2019-03-23T23:02:09.224Z,39.30
2019-03-23T23:04:42.477Z,38.70
2019-03-23T23:07:14.398Z,37.78
2019-03-23T23:09:47.580Z,38.77
2019-03-23T23:12:20.400Z,38.85
2019-03-23T23:15:03.783Z,40.53
2019-03-23T23:17:27.646Z,39.97
2019-03-23T23:20:00.698Z,37.70
2019-03-23T23:22:32.535Z,40.70
2019-03-23T23:25:05.090Z,40.20
2019-03-23T23:27:38.570Z,40.20
2019-03-23T23:30:11.798Z,39.43
2019-03-23T23:32:45.545Z,38.83
2019-03-23T23:35:19.971Z,40.98
2019-03-23T23:37:52.651Z,40.10
2019-03-23T23:40:26.865Z,40.47
2019-03-23T23:43:00.735Z,42.40
2019-03-23T23:45:33.572Z,39.77
2019-03-23T23:48:07.748Z,40.23
2019-03-23T23:50:40.681Z,39.40
2019-03-23T23:53:14.567Z,41.17
2019-03-23T23:55:47.602Z,38.80
2019-03-23T23:58:22.117Z,39.80
